x

Stonewall Bank - 20nm West Of Newport, Or (46050) Wave Buoy

4:50am - Mon 22nd Sep 2014 All times are PDT. -7 hours from GMT.

  • Sig Wave height 4.3ft
  • Swell Direction
  • Peak Period 11s
  • Average Period 6s
  • Wind
    13mph, 16mph gusts
  • Sea Temp 64°f
  • Air Temp 60°f
  • Sea Pressure 1015.1mb
  • Stonewall Bank - 20nm West Of Newport, Or
  • Stonewall Bank - 20nm West Of Newport, Or

More Historic Weather Station data

Upgrade to MSW Pro to gain access to the past 30 days of data for over 8000 Wavebouys and Weather Stations around the globe.

Join Pro

Comparision Forecast

View Surf forecast
   
Mon 09/22 4:50am 4.5ft 11s 6s 13 16 mph 1015.1mb 64f 60f
3:50am 4.5ft 11s 6s 13 16 mph 1015.2mb 64f 60f
2:50am 4.5ft 11s 6s 13 16 mph 1014.9mb 64f 62f
1:50am 4.5ft 11s 6s 13 16 mph 1015mb 64f 60f
12:50am 4.5ft 11s 6s 13 16 mph 1014.7mb 64f 61f
Sun 09/21 11:50pm 5ft 11s 6s 13 18 mph 1014.8mb 64f 60f
10:50pm 5ft 11s 6s 13 16 mph 1014.6mb 64f 61f
9:50pm 5ft 11s 6s 13 18 mph 1014.7mb 64f 61f
8:50pm 5ft 10s 6s 11 13 mph 1014.8mb 64f 61f
7:50pm 5.5ft 10s 6s 16 18 mph 1014.3mb 64f 60f
6:50pm 5.5ft 11s 6s 16 20 mph 1014mb 64f 60f
5:50pm 6ft 10s 6s 16 20 mph 1013.8mb 64f 59f
4:50pm 5.5ft 11s 6s 16 20 mph 1013.7mb 64f 60f
3:50pm 5.5ft 10s 6s 16 20 mph 1013.6mb 64f 60f
2:50pm 6.5ft 12s 6s 16 18 mph 1013.3mb 64f 59f
1:50pm 6.5ft 11s 6s 16 20 mph 1013.4mb 64f 59f
12:50pm 6.5ft 11s 6s 18 22 mph 1013.3mb 64f 60f
11:50am 6ft 11s 6s 18 22 mph 1013.2mb 64f 60f
10:50am 6ft 11s 6s 18 22 mph 1013.2mb 64f 60f
9:50am 6ft 11s 6s 18 22 mph 1012.8mb 64f 59f
8:50am 6ft 12s 6s 18 20 mph 1012.7mb 64f 59f
7:50am 6ft 11s 6s 16 20 mph 1012.3mb 64f 59f
6:50am 6ft 11s 6s 18 20 mph 1012.1mb 64f 59f
5:50am 6ft 11s 6s 18 20 mph 1012mb 64f 59f
4:50am 6ft 11s 6s 20 22 mph 1011.6mb 64f 59f
3:50am 5.5ft 12s 6s 20 25 mph 1011.7mb 64f 59f
2:50am 6ft 11s 6s 18 20 mph 1011.4mb 64f 59f
1:50am 6ft 10s 6s 18 20 mph 1011.4mb 64f 59f
12:50am 6ft 11s 6s 18 22 mph 1011.5mb 64f 59f
Sat 09/20 11:50pm 7ft 11s 7s 18 22 mph 1011.2mb 64f 58f
10:50pm 7.5ft 12s 7s 16 20 mph 1011.1mb 64f 58f
9:50pm 7ft 11s 7s 18 22 mph 1011mb 64f 58f
8:50pm 7ft 13s 8s 18 20 mph 1010.6mb 65f 58f
7:50pm 6.5ft 11s 8s 16 18 mph 1010.2mb 65f 62f
6:50pm 7.5ft 12s 8s 11 16 mph 1009.8mb 65f 64f
5:50pm 7.5ft 12s 8s 7 9 mph 1009.3mb 65f 65f
4:50pm 9.5ft 12s 9s 9 13 mph 1009.6mb 65f 65f
3:50pm 9ft 12s 9s 11 13 mph 1010mb 65f 64f
2:50pm 8.5ft 13s 8s 9 13 mph 1010.4mb 65f 64f
1:50pm 8.5ft 12s 8s 11 16 mph 1010.9mb 64f 63f
12:50pm 8.5ft 12s 8s 9 13 mph 1011.9mb 64f 62f
11:50am 9ft 13s 8s 11 13 mph 1012.5mb 64f 61f
10:50am 10ft 12s 8s 11 13 mph 1013.1mb 63f 59f
9:50am 10.5ft 13s 8s 11 13 mph 1013.6mb 63f 58f
8:50am 10ft 13s 8s 11 13 mph 1013.7mb 64f 58f
7:50am 12ft 13s 9s 16 18 mph 1013.9mb 64f 58f
6:50am 10.5ft 11s 8s 16 18 mph 1013.9mb 64f 59f
5:50am 10ft 13s 8s 16 20 mph 1014.4mb 64f 59f
4:50am 8ft 13s 7s 16 20 mph 1014.9mb 64f 59f
3:50am 7.5ft 14s 6s 16 20 mph 1015.4mb 64f 60f
2:50am 7ft 9s 6s 18 25 mph 1015.7mb 64f 62f
1:50am 6ft 9s 6s 18 22 mph 1015.8mb 64f 62f
12:50am 6ft 9s 5s 20 25 mph 1016mb 64f 63f
Fri 09/19 11:50pm  -   -   -  18 25 mph 1016.3mb 64f 63f
10:50pm 5ft 9s 5s 18 22 mph 1016.9mb 65f 63f
9:50pm 5ft 9s 5s 18 22 mph 1016.9mb 65f 64f
8:50pm 4.5ft 9s 5s 18 22 mph 1016.6mb 65f 64f
7:50pm 4.5ft 9s 5s 18 20 mph 1016.5mb 65f 65f
6:50pm 4.5ft 9s 5s 16 18 mph 1016.7mb 65f 65f
5:50pm 4ft 9s 5s 16 18 mph 1017mb 65f 65f
4:50pm 4ft 16s 6s 18 20 mph 1017.3mb 65f 65f
3:50pm 4.5ft 16s 7s 16 18 mph 1017.7mb 65f 65f
2:50pm 4.5ft 9s 8s 13 16 mph 1018.2mb 65f 64f
1:50pm 4.5ft 8s 8s 9 11 mph 1018.7mb 65f 64f
12:50pm 4.5ft 9s 8s 9
mph
1019mb 66f 63f
11:50am 4.5ft 9s 9s 2 4 mph 1019.2mb 65f 62f
10:50am 4.5ft 9s 9s  -  2 mph 1019mb 65f 62f
9:50am 4.5ft 10s 8s  -  4 mph 1018.9mb 65f 62f
8:50am 5ft 9s 9s  -  2 mph 1018.7mb 65f 63f
7:50am 4.5ft 10s 9s  -  2 mph 1018.2mb 65f 62f
6:50am 4.5ft 9s 9s  -  4 mph 1017.8mb 65f 62f
5:50am 5ft 10s 9s  -  2 mph 1017.4mb 65f 64f
4:50am 5ft 9s 9s 4 7 mph 1017.2mb 65f 64f
3:50am 5ft 9s 9s  -  mph 1016.9mb 65f 64f
2:50am 5ft 9s 9s  -  mph 1016.8mb 65f 64f
1:50am 5ft 11s 9s 4 7 mph 1016.7mb 65f 64f
12:50am 5ft 11s 9s 7 9 mph 1016.4mb 65f 64f
Thu 09/18 11:50pm 5ft 16s 9s 7 9 mph 1015.8mb 65f 64f
10:50pm 5.5ft 10s 9s 7
mph
1015.6mb 65f 64f
9:50pm 5ft 9s 9s 7 9 mph 1015.4mb 65f 64f
8:50pm 5ft 10s 9s 4 7 mph 1014.8mb 65f 64f
7:50pm 5.5ft 10s 9s 4 7 mph 1013.9mb 65f 64f
6:50pm 6ft 11s 9s 7 11 mph 1013.6mb 65f 65f
5:50pm 5ft 11s 9s 7 9 mph 1013.1mb 66f 65f
4:50pm 6ft 11s 9s 7 9 mph 1012.8mb 66f 65f
3:50pm 5.5ft 11s 9s 4 7 mph 1012.4mb 67f 65f
2:50pm 5.5ft 11s 9s 4 7 mph 1012.2mb 66f 64f
1:50pm 6ft 11s 9s 4
mph
1012mb 66f 64f